Old Res Weather

Lexington, Massachusetts, USA

56°F
10/26/2021 10:47am 
  • Lexington Conditions: Light rain, Mist, Mostly cloudy
  • Temperature: 55.8°F / 13.2°CWarmer 0.6°F than last hour.
  • Dew Point: 55.2°FIncreased 0.5°Fsince last hour.
  • Relative Humidity: 98
  • Wind: Calm, 10-min avg: Calm, gust: 4 mph
  • Barometer: 29.67 inFalling 0.02  inHg/hr Falling Slowly
  • Visibility: 2 miles
  • Rain Today: 1.24 in
  • UV Index: $VPuv None
  •   
Southeast Middlesex County, MA - High Wind Warning - Flood Watch
 - SEE ALL NEARBY ALERTS -

Nearby Reports - Official Weather Stations - Current Conditions

Data from the National Weather Service

KBED - Bedford, Massachusetts, USA


Distance from station: NW 4mi, 6km

Updated Tue Oct 26, 2021 9:51am EDT

Light rain, Mist, Mostly cloudy

Light rain, Mist, Mostly cloudy

Wind from NNE

Wind:

NNE 15 mph, 24 km/h

Temperature: 54°F (12°C)

Dew Point: 54°F (12°C)

Humidity: 100%

Barometer: 29.67 in (1004.7 hPa)

Summary: Light rain, Mist

Clouds: Mostly cloudy

Visibility: 2 miles (3 km)

Cloud details: Mostly cloudy 600 ft


2021/10/26 13:51 KBED 261351Z 02013KT 2SM -RA BR BKN006 12/12 A2967 RMK AO2 SLP060 P0005 T01220122

KBOS - Boston, Massachusetts, USA


Distance from station: ESE 13mi, 20km

Updated Tue Oct 26, 2021 10:04am EDT

Mist, Overcast

Mist, Overcast

Wind from ENE

Wind:

ENE 16 mph, 26 km/h

Temperature: 61°F (16°C)

Dew Point: 59°F (15°C)

Humidity: 94%

Barometer: 29.66 in (1004.4 hPa)

Summary: Mist

Clouds: Overcast

Visibility: 6 miles (10 km)

Cloud details: Overcast 700 ft


2021/10/26 14:04 KBOS 261404Z 06014KT 6SM BR OVC007 16/15 A2966 RMK AO2 T01560150

KOWD - Norwood, Massachusetts, USA


Distance from station: SSE 18mi, 29km

Updated Tue Oct 26, 2021 10:29am EDT

Overcast

Overcast

Wind from ENE

Wind:

ENE 9 mph, 15 km/h

Temperature: 64°F (18°C)

Dew Point: 61°F (16°C)

Humidity: 88%

Barometer: 29.62 in (1003 hPa)

Clouds: Overcast

Visibility: 9 miles (14 km)

Cloud details: Partly cloudy 800 ft
Mostly cloudy 1800 ft
Overcast 7000 ft


2021/10/26 14:29 KOWD 261429Z 06008KT 9SM SCT008 BKN018 OVC070 18/16 A2962 RMK AO2 RAB11E29 P0001 T01780161

KBVY - Beverly, Massachusetts, USA


Distance from station: ENE 20mi, 32km

Updated Tue Oct 26, 2021 10:37am EDT

Mist, Overcast

Mist, Overcast

Wind from ENE

Wind:

ENE 7 mph, 11 km/h

Temperature: 61°F (16°C)

Dew Point: 59°F (15°C)

Humidity: 94%

Barometer: 29.67 in (1004.7 hPa)

Summary: Mist

Clouds: Overcast

Visibility: 5 miles (8 km)

Cloud details: Overcast 200 ft


2021/10/26 14:37 KBVY 261437Z 06006KT 5SM BR OVC002 16/15 A2967 RMK AO2 RAB08E20 P0000 T01560150

KLWM - Lawrence, Massachusetts, USA


Distance from station: NNE 20mi, 33km

Updated Tue Oct 26, 2021 10:30am EDT

Light rain, Mist, Overcast

Light rain, Mist, Overcast

Wind from NNE

Wind:

NNE 15 mph, 24 km/h

Temperature: 54°F (12°C)

Dew Point: 52°F (11°C)

Humidity: 94%

Barometer: 29.71 in (1006.1 hPa)

Summary: Light rain, Mist

Clouds: Overcast

Visibility: 2 miles (3 km)

Cloud details: Overcast 500 ft


2021/10/26 14:30 KLWM 261430Z 02013KT 2SM -RA BR OVC005 12/11 A2971 RMK AO2 P0002 T01170111

KFIT - Fitchburg, Massachusetts, USA


Distance from station: WNW 27mi, 43km

Updated Tue Oct 26, 2021 9:52am EDT

Light rain, Overcast

Light rain, Overcast

Wind from varies

Wind:

varies 6 mph, 9 km/h

Temperature: 50°F (10°C)

Wind Chill: 48°F (9°C)

Dew Point: 46°F (8°C)

Humidity: 88%

Barometer: 29.71 in (1006.1 hPa)

Summary: Light rain

Clouds: Overcast

Visibility: 10 miles (16 km)

Cloud details: Overcast 700 ft


2021/10/26 13:52 KFIT 261352Z AUTO VRB05KT 10SM -RA OVC007 10/08 A2971 RMK AO2 CIG 006V010 SLP064 P0002 T01000083

KASH - Nashua/Boire Fld, New Hampshire, USA


Distance from station: NNW 28mi, 45km

Updated Tue Oct 26, 2021 9:56am EDT

Light rain, Mist, Overcast

Light rain, Mist, Overcast

Wind from varies

Wind:

varies 6 mph, 9 km/h

Temperature: 48°F (9°C)

Wind Chill: 45°F (7°C)

Dew Point: 48°F (9°C)

Humidity: 100%

Barometer: 29.73 in (1006.8 hPa)

Summary: Light rain, Mist

Clouds: Overcast

Visibility: 5 miles (8 km)

Cloud details: Overcast 600 ft


2021/10/26 13:56 KASH 261356Z VRB05KT 5SM -RA BR OVC006 09/09 A2973 RMK AO2 SLP072 P0018 T00940094

KORH - Worcester, Massachusetts, USA


Distance from station: WSW 34mi, 54km

Updated Tue Oct 26, 2021 10:18am EDT

Fog, Overcast

Fog, Overcast

Wind from NNE

Wind:

NNE 16 mph, 26 km/h,
Gust: 24 mph, 39 km/h

Temperature: 48°F (9°C)

Wind Chill: 42°F (6°C)

Dew Point: 48°F (9°C)

Humidity: 100%

Barometer: 29.64 in (1003.7 hPa)

Summary: Fog

Clouds: Overcast

Visibility: less than ¼ mile (0 km)

Cloud details: Overcast 200 ft


2021/10/26 14:18 KORH 261418Z 03014G21KT M1/4SM R11/1600V1800FT FG VV002 09/09 A2964 RMK AO2 T00940089

KMHT - Manchester, New Hampshire, USA


Distance from station: NNW 36mi, 57km

Updated Tue Oct 26, 2021 9:53am EDT

Light rain, Mist, Overcast

Light rain, Mist, Overcast

Wind from NE

Wind:

NE 14 mph, 22 km/h,
Gust: 25 mph, 41 km/h

Temperature: 52°F (11°C)

Dew Point: 46°F (8°C)

Humidity: 82%

Barometer: 29.72 in (1006.4 hPa)

Summary: Light rain, Mist

Clouds: Overcast

Visibility: 5 miles (8 km)

Cloud details: Overcast 800 ft


2021/10/26 13:53 KMHT 261353Z 05012G22KT 5SM -RA BR OVC008 11/08 A2972 RMK AO2 SLP078 P0010 T01060083

KGHG - Marshfield, Massachusetts, USA


Distance from station: SE 38mi, 60km

Updated Tue Oct 26, 2021 10:35am EDT

Mist, Mostly cloudy

Mist, Mostly cloudy

Wind from E

Wind:

E 9 mph, 15 km/h,
Gust: 16 mph, 26 km/h

Temperature: 63°F (17°C)

Dew Point: 61°F (16°C)

Humidity: 94%

Barometer: 29.63 in (1003.4 hPa)

Summary: Mist

Clouds: Mostly cloudy

Visibility: 6 miles (10 km)

Cloud details: Few Clouds 5500 ft
Partly cloudy 6500 ft
Mostly cloudy 7500 ft


2021/10/26 14:35 KGHG 261435Z AUTO 08008G14KT 6SM BR FEW055 SCT065 BKN075 17/16 A2963 RMK AO2

KSFZ - Pawtucket, Rhode Island, USA


Distance from station: SSW 38mi, 61km

Updated Tue Oct 26, 2021 10:32am EDT

Mist, Overcast

Mist, Overcast

Wind from varies

Wind:

varies 6 mph, 9 km/h

Temperature: 61°F (16°C)

Dew Point: 61°F (16°C)

Humidity: 100%

Barometer: 29.61 in (1002.7 hPa)

Summary: Mist

Clouds: Overcast

Visibility: 3 miles (5 km)

Cloud details: Overcast 200 ft


2021/10/26 14:32 KSFZ 261432Z AUTO VRB05KT 3SM BR OVC002 16/16 A2961 RMK AO2 RAE1358 PNO $

KTAN - Taunton, Massachusetts, USA


Distance from station: SSE 40mi, 64km

Updated Tue Oct 26, 2021 9:52am EDT

Overcast

Overcast

Wind from E

Wind:

E 8 mph, 13 km/h

Temperature: 64°F (18°C)

Dew Point: 61°F (16°C)

Humidity: 88%

Barometer: 29.62 in (1003 hPa)

Clouds: Overcast

Visibility: 10 miles (16 km)

Cloud details: Few Clouds 2400 ft
Mostly cloudy 6500 ft
Overcast 11000 ft


2021/10/26 13:52 KTAN 261352Z AUTO 09007KT 10SM FEW024 BKN065 OVC110 18/16 A2962 RMK AO2 SLP031 T01830156

KPYM - Plymouth, Massachusetts, USA


Distance from station: SE 44mi, 71km

Updated Tue Oct 26, 2021 9:52am EDT

Overcast

Overcast

Wind from E

Wind:

E 12 mph, 19 km/h

Temperature: 64°F (18°C)

Dew Point: 61°F (16°C)

Humidity: 88%

Barometer: 29.63 in (1003.4 hPa)

Clouds: Overcast

Visibility: 10 miles (16 km)

Cloud details: Few Clouds 1200 ft
Mostly cloudy 6500 ft
Overcast 12000 ft


2021/10/26 13:52 KPYM 261352Z AUTO 10010KT 070V130 10SM FEW012 BKN065 OVC120 18/16 A2963 RMK AO2 SLP034 T01830161

KAFN - Jaffrey, New Hampshire, USA


Distance from station: WNW 46mi, 74km

Updated Tue Oct 26, 2021 10:37am EDT

Light rain, Mist, Overcast

Light rain, Mist, Overcast

Wind from varies

Wind:

varies 6 mph, 9 km/h

Temperature: 48°F (9°C)

Wind Chill: 45°F (7°C)

Dew Point: 45°F (7°C)

Humidity: 87%

Barometer: 29.70 in (1005.8 hPa)

Summary: Light rain, Mist

Clouds: Overcast

Visibility: 5 miles (8 km)

Cloud details: Overcast 600 ft


2021/10/26 14:37 KAFN 261437Z AUTO VRB05KT 5SM -RA BR OVC006 09/07 A2970 RMK AO2 P0007 T00890072

KPSM - Portsmouth/Pease, New Hampshire, USA


Distance from station: NNE 49mi, 78km

Updated Tue Oct 26, 2021 9:56am EDT

Light rain, Mist, Overcast

Light rain, Mist, Overcast

Wind from NE

Wind:

NE 13 mph, 20 km/h,
Gust: 20 mph, 31 km/h

Temperature: 50°F (10°C)

Wind Chill: 45°F (7°C)

Dew Point: 50°F (10°C)

Humidity: 100%

Barometer: 29.76 in (1007.8 hPa)

Summary: Light rain, Mist

Clouds: Overcast

Visibility: 1 mile (2 km)

Cloud details: Overcast 400 ft


2021/10/26 13:56 KPSM 261356Z 05011G17KT 1SM R34/P6000FT -RA BR OVC004 10/10 A2976 RMK AO2A DZE12RAB12 SLP081 P0002 T01010095

KPVD - Providence/Green, Rhode Island, USA


Distance from station: S 51mi, 81km

Updated Tue Oct 26, 2021 9:51am EDT

Patches of fog, Overcast

Patches of fog, Overcast

Wind from E

Wind:

E 13 mph, 20 km/h

Temperature: 64°F (18°C)

Dew Point: 63°F (17°C)

Humidity: 94%

Barometer: 29.61 in (1002.7 hPa)

Summary: Patches of Fog

Clouds: Overcast

Visibility: 10 miles (16 km)

Cloud details: Few Clouds 1700 ft
Mostly cloudy 4300 ft
Overcast 5500 ft


2021/10/26 13:51 KPVD 261351Z 09011KT 10SM BCFG FEW017 BKN043 OVC055 18/17 A2961 RMK AO2 RAE10 SLP026 BCFG SW P0000 T01780167

KORE - Orange, Massachusetts, USA


Distance from station: W 54mi, 86km

Updated Tue Oct 26, 2021 10:27am EDT

Overcast

Overcast

Wind from NE

Wind:

NE 10 mph, 17 km/h,
Gust: 18 mph, 30 km/h

Temperature: 52°F (11°C)

Dew Point: 48°F (9°C)

Humidity: 88%

Barometer: 29.67 in (1004.7 hPa)

Clouds: Overcast

Visibility: 10 miles (16 km)

Cloud details: Mostly cloudy 1500 ft
Overcast 2100 ft


2021/10/26 14:27 KORE 261427Z AUTO 04009G16KT 10SM BKN015 OVC021 11/09 A2967 RMK AO2 RAE05 P0000 T01060089

KEWB - New Bedford, Massachusetts, USA


Distance from station: SSE 54mi, 87km

Updated Tue Oct 26, 2021 9:53am EDT

Overcast

Overcast

Wind from ESE

Wind:

ESE 13 mph, 20 km/h,
Gust: 20 mph, 31 km/h

Temperature: 64°F (18°C)

Dew Point: 61°F (16°C)

Humidity: 88%

Barometer: 29.61 in (1002.7 hPa)

Clouds: Overcast

Visibility: 10 miles (16 km)

Cloud details: Partly cloudy 6000 ft
Overcast 10000 ft


2021/10/26 13:53 KEWB 261353Z 11011G17KT 10SM SCT060 OVC100 18/16 A2961 RMK AO2 SLP025 T01830156

KCON - Concord, New Hampshire, USA


Distance from station: NNW 54mi, 88km

Updated Tue Oct 26, 2021 9:51am EDT

Overcast

Overcast

Wind from NE

Wind:

NE 12 mph, 19 km/h,
Gust: 17 mph, 28 km/h

Temperature: 46°F (8°C)

Wind Chill: 40°F (4°C)

Dew Point: 45°F (7°C)

Humidity: 93%

Barometer: 29.76 in (1007.8 hPa)

Clouds: Overcast

Visibility: 10 miles (16 km)

Cloud details: Overcast 900 ft


2021/10/26 13:51 KCON 261351Z AUTO 05010G15KT 010V080 10SM OVC009 08/07 A2976 RMK AO2 SLP080 T00830072

KMWN - Mount Washington, New Hampshire, USA


Distance from station: N 127mi, 204km

Updated Tue Oct 26, 2021 9:53am EDT

Fog, Overcast

Fog, Overcast

Wind from S

Wind:

S 51 mph, 81 km/h,
Gust: 59 mph, 94 km/h

Temperature: 39°F (4°C)

Wind Chill: 24°F (-4°C)

Dew Point: 39°F (4°C)

Humidity: 100%

Summary: Fog

Clouds: Overcast

Visibility: 1/16 mile (0 km)

Cloud details: Overcast 100 ft


2021/10/26 13:53 KMWN 261353Z 19044G51KT 1/16SM FG VV001 04/04 RMK